createdAt,value
2024-01-10T00:00:12.911Z,3.01
2024-01-10T00:03:10.788Z,2.92
2024-01-10T00:06:08.404Z,2.87
2024-01-10T00:09:06.071Z,2.75
2024-01-10T00:12:03.528Z,2.70
2024-01-10T00:15:01.146Z,2.70
2024-01-10T00:17:58.880Z,2.66
2024-01-10T00:20:56.464Z,2.64
2024-01-10T00:23:54.248Z,2.52
2024-01-10T00:26:51.830Z,2.47
2024-01-10T00:29:49.250Z,2.40
2024-01-10T00:32:46.984Z,2.37
2024-01-10T00:35:44.768Z,2.43
2024-01-10T00:38:42.203Z,2.68
2024-01-10T00:41:39.872Z,2.66
2024-01-10T00:44:37.795Z,2.79
2024-01-10T00:47:35.546Z,2.63
2024-01-10T00:50:32.970Z,2.55
2024-01-10T00:53:32.335Z,2.21
2024-01-10T00:56:32.038Z,2.01
2024-01-10T00:59:32.468Z,2.19
2024-01-10T01:02:31.474Z,2.18
2024-01-10T01:05:31.530Z,1.78
2024-01-10T01:08:31.096Z,1.57
2024-01-10T01:11:30.144Z,1.46
2024-01-10T01:14:28.990Z,1.23
2024-01-10T01:17:28.261Z,1.09
2024-01-10T01:20:29.657Z,0.88
2024-01-10T01:23:38.724Z,0.84
2024-01-10T01:26:39.440Z,0.49
2024-01-10T01:29:37.127Z,0.20
2024-01-10T01:32:34.520Z,-0.04
2024-01-10T01:35:33.527Z,-0.28
2024-01-10T01:38:32.332Z,-0.50
2024-01-10T01:41:31.639Z,-0.51
2024-01-10T01:44:30.756Z,-0.28
2024-01-10T01:47:30.457Z,0.29
2024-01-10T01:50:29.295Z,0.47
2024-01-10T01:53:28.663Z,0.40
2024-01-10T01:56:27.429Z,0.64
2024-01-10T01:59:25.141Z,0.96
2024-01-10T02:02:22.655Z,1.12
2024-01-10T02:05:20.584Z,1.36
2024-01-10T02:08:18.084Z,1.06
2024-01-10T02:11:16.187Z,0.56
2024-01-10T02:14:13.809Z,0.26
2024-01-10T02:17:12.154Z,0.18
2024-01-10T02:20:09.685Z,0.00
2024-01-10T02:23:07.645Z,-0.07
2024-01-10T02:26:05.192Z,-0.05
2024-01-10T02:29:02.991Z,-0.07
2024-01-10T02:32:00.841Z,0.15
2024-01-10T02:34:58.814Z,0.34
2024-01-10T02:37:56.289Z,0.56
2024-01-10T02:40:54.107Z,0.51
2024-01-10T02:43:51.520Z,0.21
2024-01-10T02:46:49.376Z,0.09
2024-01-10T02:49:46.857Z,0.22
2024-01-10T02:52:44.902Z,0.25
2024-01-10T02:55:42.900Z,0.32
2024-01-10T02:58:40.860Z,0.21
2024-01-10T03:01:38.313Z,-0.04
2024-01-10T03:04:36.139Z,-0.27
2024-01-10T03:07:33.563Z,-0.27
2024-01-10T03:10:31.662Z,-0.26
2024-01-10T03:13:29.082Z,-0.25
2024-01-10T03:16:27.055Z,-0.26
2024-01-10T03:19:24.430Z,-0.25
2024-01-10T03:22:22.213Z,-0.33
2024-01-10T03:25:19.630Z,-0.42
2024-01-10T03:28:17.475Z,-0.50
2024-01-10T03:31:14.863Z,-0.68
2024-01-10T03:34:12.888Z,-0.90
2024-01-10T03:37:10.330Z,-1.04
2024-01-10T03:40:08.263Z,-0.80
2024-01-10T03:43:06.126Z,-0.99
2024-01-10T03:46:03.515Z,-2.04
2024-01-10T03:49:01.305Z,-2.98
2024-01-10T03:51:58.745Z,-3.71
2024-01-10T03:54:56.565Z,-3.81
2024-01-10T03:57:53.956Z,-3.92
2024-01-10T04:00:51.926Z,-4.21
2024-01-10T04:03:49.847Z,-4.45
2024-01-10T04:06:47.461Z,-4.67
2024-01-10T04:09:45.700Z,-4.71
2024-01-10T04:12:43.785Z,-4.96
2024-01-10T04:15:41.207Z,-5.20
2024-01-10T04:18:39.151Z,-5.42
2024-01-10T04:21:36.642Z,-5.32
2024-01-10T04:24:34.440Z,-5.00
2024-01-10T04:27:31.872Z,-5.37
2024-01-10T04:30:29.736Z,-5.67
2024-01-10T04:33:27.756Z,-5.50
2024-01-10T04:36:25.265Z,-5.19
2024-01-10T04:39:23.092Z,-5.41
2024-01-10T04:42:20.451Z,-5.92
2024-01-10T04:45:18.413Z,-5.81
2024-01-10T04:48:15.941Z,-5.38
2024-01-10T04:51:13.847Z,-4.10
2024-01-10T04:54:11.244Z,-3.21
2024-01-10T04:57:09.855Z,-2.93
2024-01-10T05:00:07.877Z,-2.68
2024-01-10T05:03:05.910Z,-3.22
2024-01-10T05:06:03.641Z,-4.13
2024-01-10T05:09:01.690Z,-4.82
2024-01-10T05:11:59.398Z,-5.23
2024-01-10T05:14:56.789Z,-5.34
2024-01-10T05:17:54.892Z,-5.63
2024-01-10T05:20:52.624Z,-5.93
2024-01-10T05:23:50.114Z,-6.19
2024-01-10T05:26:48.077Z,-6.39
2024-01-10T05:29:45.478Z,-5.79
2024-01-10T05:32:43.495Z,-3.97
2024-01-10T05:35:40.915Z,-2.34
2024-01-10T05:38:38.606Z,-1.34
2024-01-10T05:41:37.679Z,-0.72
2024-01-10T05:44:36.822Z,-0.26
2024-01-10T05:47:34.344Z,0.20
2024-01-10T05:50:32.395Z,0.39
2024-01-10T05:53:30.054Z,0.47
2024-01-10T05:56:29.510Z,0.71
2024-01-10T05:59:29.560Z,0.91
2024-01-10T06:02:28.540Z,1.10
2024-01-10T06:05:26.138Z,1.08
2024-01-10T06:08:26.959Z,0.88
2024-01-10T06:11:24.513Z,0.83
2024-01-10T06:14:22.494Z,1.38
2024-01-10T06:17:20.070Z,1.52
2024-01-10T06:20:18.128Z,1.44
2024-01-10T06:23:15.603Z,1.14
2024-01-10T06:26:13.632Z,0.64
2024-01-10T06:29:11.140Z,0.31
2024-01-10T06:32:09.314Z,-0.01
2024-01-10T06:35:06.897Z,-0.36
2024-01-10T06:38:05.653Z,-0.59
2024-01-10T06:41:03.220Z,-0.71
2024-01-10T06:44:04.919Z,-0.74
2024-01-10T06:47:02.528Z,-0.75
2024-01-10T06:50:00.391Z,-0.68
2024-01-10T06:52:58.540Z,-0.75
2024-01-10T06:55:56.020Z,-0.81
2024-01-10T06:58:56.077Z,-0.84
2024-01-10T07:01:53.511Z,-0.93
2024-01-10T07:04:51.912Z,-1.12
2024-01-10T07:07:51.292Z,-1.30
2024-01-10T07:10:49.418Z,-1.43
2024-01-10T07:13:48.193Z,-0.79
2024-01-10T07:16:48.689Z,-0.74
2024-01-10T07:19:47.806Z,-0.48
2024-01-10T07:22:45.812Z,-0.50
2024-01-10T07:25:43.360Z,-0.85
2024-01-10T07:28:40.830Z,-1.15
2024-01-10T07:31:38.815Z,-1.36
2024-01-10T07:34:36.504Z,-1.44
2024-01-10T07:37:33.947Z,-1.22
2024-01-10T07:40:31.459Z,-0.53
2024-01-10T07:43:30.341Z,-0.67
2024-01-10T07:46:28.363Z,-0.91
2024-01-10T07:49:26.228Z,-0.90
2024-01-10T07:52:25.420Z,-0.80
2024-01-10T07:55:23.604Z,-0.74
2024-01-10T07:58:21.049Z,-0.94
2024-01-10T08:01:18.726Z,-1.10
2024-01-10T08:04:16.697Z,-1.34
2024-01-10T08:07:14.945Z,-1.45
2024-01-10T08:10:12.360Z,-1.43
2024-01-10T08:13:10.487Z,-0.91
2024-01-10T08:16:10.353Z,-0.69
2024-01-10T08:19:08.348Z,-0.60
2024-01-10T08:22:05.820Z,-0.62
2024-01-10T08:25:04.641Z,-0.67
2024-01-10T08:28:02.117Z,-0.68
2024-01-10T08:31:04.386Z,-0.57
2024-01-10T08:34:04.006Z,-0.42
2024-01-10T08:37:01.907Z,-0.25
2024-01-10T08:40:00.173Z,-0.08
2024-01-10T08:42:58.086Z,-0.07
2024-01-10T08:45:55.480Z,-0.31
2024-01-10T08:48:54.299Z,-0.51
2024-01-10T08:51:51.870Z,-0.69
2024-01-10T08:54:50.168Z,-0.86
2024-01-10T08:57:48.283Z,-0.68
2024-01-10T09:00:46.261Z,-0.73
2024-01-10T09:03:43.739Z,-0.83
2024-01-10T09:06:41.747Z,-0.73
2024-01-10T09:09:39.290Z,-0.92
2024-01-10T09:12:37.134Z,-1.05
2024-01-10T09:15:34.550Z,0.11
2024-01-10T09:18:32.484Z,1.37
2024-01-10T09:21:29.905Z,1.87
2024-01-10T09:24:29.930Z,2.06
2024-01-10T09:27:27.847Z,2.52
2024-01-10T09:30:25.632Z,2.81
2024-01-10T09:33:24.098Z,3.04
2024-01-10T09:36:22.091Z,3.17
2024-01-10T09:39:19.523Z,3.25
2024-01-10T09:42:17.524Z,3.55
2024-01-10T09:45:15.138Z,3.96
2024-01-10T09:48:13.206Z,4.41
2024-01-10T09:51:11.057Z,4.82
2024-01-10T09:54:08.788Z,5.09
2024-01-10T09:57:07.005Z,5.05
2024-01-10T10:00:06.980Z,5.00
2024-01-10T10:03:04.616Z,4.58
2024-01-10T10:06:02.513Z,4.50
2024-01-10T10:09:00.080Z,4.94
2024-01-10T10:11:58.682Z,5.11
2024-01-10T10:14:56.533Z,3.82
2024-01-10T10:17:55.367Z,2.35
2024-01-10T10:20:53.373Z,1.24
2024-01-10T10:23:50.863Z,0.39
2024-01-10T10:26:48.657Z,-0.21
2024-01-10T10:29:48.462Z,-0.65
2024-01-10T10:32:46.820Z,-1.01
2024-01-10T10:35:47.324Z,-1.29
2024-01-10T10:38:47.034Z,-1.52
2024-01-10T10:41:44.507Z,-1.70
2024-01-10T10:44:43.246Z,-1.82
2024-01-10T10:47:41.641Z,-1.88
2024-01-10T10:50:40.478Z,-1.92
2024-01-10T10:53:38.093Z,-1.95
2024-01-10T10:56:36.455Z,-1.97
2024-01-10T10:59:34.431Z,-1.95
2024-01-10T11:02:32.557Z,-1.95
2024-01-10T11:05:31.202Z,-1.96
2024-01-10T11:08:29.219Z,-1.94
2024-01-10T11:11:26.845Z,-1.94
2024-01-10T11:14:26.279Z,-1.91
2024-01-10T11:17:24.698Z,-1.86
2024-01-10T11:20:22.304Z,-1.78
2024-01-10T11:23:20.224Z,-1.72
2024-01-10T11:26:17.821Z,-1.65
2024-01-10T11:29:15.813Z,-1.57
2024-01-10T11:32:13.731Z,-1.47
2024-01-10T11:35:12.788Z,-1.37
2024-01-10T11:38:12.216Z,-1.28
2024-01-10T11:41:10.880Z,-1.18
2024-01-10T11:44:08.799Z,-1.10
2024-01-10T11:47:06.502Z,-1.02
2024-01-10T11:50:05.217Z,-0.95
2024-01-10T11:53:04.329Z,-0.88
2024-01-10T11:56:02.688Z,-0.80
2024-01-10T11:59:00.735Z,-0.71
2024-01-10T12:01:58.773Z,-0.63
2024-01-10T12:04:56.428Z,-0.55
2024-01-10T12:07:54.654Z,-0.48
2024-01-10T12:10:52.183Z,-0.41
2024-01-10T12:13:50.217Z,-0.33
2024-01-10T12:16:47.702Z,-0.26
2024-01-10T12:19:47.357Z,-0.20
2024-01-10T12:22:45.212Z,-0.15
2024-01-10T12:25:43.130Z,-0.11
2024-01-10T12:28:40.561Z,-0.09
2024-01-10T12:31:38.512Z,-0.06
2024-01-10T12:34:36.042Z,-0.02
2024-01-10T12:37:33.955Z,0.02
2024-01-10T12:40:31.604Z,0.08
2024-01-10T12:43:29.505Z,0.12
2024-01-10T12:46:26.935Z,0.15
2024-01-10T12:49:24.411Z,0.20
2024-01-10T12:52:24.223Z,0.23
2024-01-10T12:55:23.314Z,0.28
2024-01-10T12:58:20.898Z,0.30
2024-01-10T13:01:18.695Z,0.31
2024-01-10T13:04:16.176Z,0.32
2024-01-10T13:07:14.100Z,0.33
2024-01-10T13:10:11.472Z,0.41
2024-01-10T13:13:09.360Z,0.70
2024-01-10T13:16:07.343Z,0.86
2024-01-10T13:19:04.986Z,1.01
2024-01-10T13:22:05.592Z,1.21
2024-01-10T13:25:04.828Z,1.57
2024-01-10T13:28:02.658Z,2.10
2024-01-10T13:31:00.205Z,1.94
2024-01-10T13:33:58.335Z,1.63
2024-01-10T13:36:56.394Z,1.40
2024-01-10T13:39:53.781Z,1.20
2024-01-10T13:42:51.767Z,1.02
2024-01-10T13:45:49.184Z,0.87
2024-01-10T13:48:47.107Z,0.75
2024-01-10T13:51:47.876Z,0.65
2024-01-10T13:54:45.650Z,0.55
2024-01-10T13:57:43.585Z,0.48
2024-01-10T14:00:44.600Z,0.49
2024-01-10T14:03:42.885Z,0.54
2024-01-10T14:06:40.348Z,0.57
2024-01-10T14:09:38.451Z,0.58
2024-01-10T14:12:35.882Z,0.58
2024-01-10T14:15:33.696Z,0.58
2024-01-10T14:18:31.158Z,0.56
2024-01-10T14:21:29.135Z,0.55
2024-01-10T14:24:26.933Z,0.54
2024-01-10T14:27:24.775Z,0.54
2024-01-10T14:30:22.584Z,0.52
2024-01-10T14:33:20.485Z,0.50
2024-01-10T14:36:18.146Z,0.49
2024-01-10T14:39:16.852Z,0.46
2024-01-10T14:42:14.847Z,0.45
2024-01-10T14:45:13.112Z,0.44
2024-01-10T14:48:10.596Z,0.42
2024-01-10T14:51:08.560Z,0.39
2024-01-10T14:54:05.944Z,0.36
2024-01-10T14:57:04.705Z,0.35
2024-01-10T15:00:02.235Z,0.31
2024-01-10T15:03:02.832Z,0.26
2024-01-10T15:06:04.041Z,0.22
2024-01-10T15:09:04.476Z,0.18
2024-01-10T15:12:02.129Z,0.14
2024-01-10T15:15:01.545Z,0.11
2024-01-10T15:17:59.047Z,0.08
2024-01-10T15:20:57.007Z,0.06
2024-01-10T15:23:54.674Z,0.03
2024-01-10T15:26:53.933Z,0.01
2024-01-10T15:29:56.796Z,-0.02
2024-01-10T15:33:00.639Z,-0.06
2024-01-10T15:35:59.435Z,-0.09
2024-01-10T15:38:57.026Z,-0.12
2024-01-10T15:41:55.377Z,-0.14
2024-01-10T15:44:52.991Z,-0.16
2024-01-10T15:47:50.838Z,-0.18
2024-01-10T15:50:48.283Z,-0.20
2024-01-10T15:53:46.569Z,-0.23
2024-01-10T15:56:44.509Z,-0.24
2024-01-10T15:59:42.924Z,-0.27
2024-01-10T16:02:41.835Z,-0.30
2024-01-10T16:05:39.349Z,-0.33
2024-01-10T16:08:37.218Z,-0.36
2024-01-10T16:11:34.670Z,-0.38
2024-01-10T16:14:33.481Z,-0.40
2024-01-10T16:17:32.193Z,-0.45
2024-01-10T16:20:29.785Z,-0.48
2024-01-10T16:23:27.896Z,-0.53
2024-01-10T16:26:25.386Z,-0.57
2024-01-10T16:29:23.264Z,-0.60
2024-01-10T16:32:20.719Z,-0.63
2024-01-10T16:35:18.968Z,-0.66
2024-01-10T16:38:16.504Z,-0.70
2024-01-10T16:41:14.903Z,-0.72
2024-01-10T16:44:12.408Z,-0.74
2024-01-10T16:47:10.794Z,-0.77
2024-01-10T16:50:08.609Z,-0.79
2024-01-10T16:53:06.608Z,-0.81
2024-01-10T16:56:04.734Z,-0.84
2024-01-10T16:59:02.597Z,-0.88
2024-01-10T17:02:00.831Z,-0.91
2024-01-10T17:04:58.910Z,-0.96
2024-01-10T17:07:57.308Z,-1.00
2024-01-10T17:10:55.426Z,-1.03
2024-01-10T17:13:53.335Z,-1.05
2024-01-10T17:16:50.996Z,-1.07
2024-01-10T17:19:49.700Z,-1.09
2024-01-10T17:22:47.475Z,-1.11
2024-01-10T17:25:45.547Z,-1.14
2024-01-10T17:28:43.240Z,-1.16
2024-01-10T17:31:41.492Z,-1.18
2024-01-10T17:34:39.941Z,-1.20
2024-01-10T17:37:37.961Z,-1.22
2024-01-10T17:40:35.366Z,-1.24
2024-01-10T17:43:33.459Z,-1.25
2024-01-10T17:46:32.524Z,-1.26
2024-01-10T17:49:30.450Z,-1.27
2024-01-10T17:52:28.098Z,-1.28
2024-01-10T17:55:25.943Z,-1.30
2024-01-10T17:58:24.125Z,-1.32
2024-01-10T18:01:23.685Z,-1.34
2024-01-10T18:04:21.801Z,-1.35
2024-01-10T18:07:19.862Z,-1.35
2024-01-10T18:10:17.294Z,-1.37
2024-01-10T18:13:16.338Z,-1.38
2024-01-10T18:16:14.140Z,-1.41
2024-01-10T18:19:13.692Z,-1.43
2024-01-10T18:22:11.382Z,-1.47
2024-01-10T18:25:08.920Z,-1.29
2024-01-10T18:28:06.945Z,-0.99
2024-01-10T18:31:06.034Z,-1.15
2024-01-10T18:34:04.703Z,-1.32
2024-01-10T18:37:02.364Z,-1.45
2024-01-10T18:40:00.104Z,-1.57
2024-01-10T18:42:57.546Z,-1.68
2024-01-10T18:45:55.910Z,-1.78
2024-01-10T18:48:53.375Z,-1.60
2024-01-10T18:51:50.977Z,-1.13
2024-01-10T18:54:48.768Z,-1.25
2024-01-10T18:57:48.915Z,-1.48
2024-01-10T19:00:47.224Z,-1.24
2024-01-10T19:03:45.078Z,-1.38
2024-01-10T19:06:43.741Z,-1.59
2024-01-10T19:09:41.512Z,-1.47
2024-01-10T19:12:39.581Z,-1.43
2024-01-10T19:15:37.313Z,-1.51
2024-01-10T19:18:35.512Z,-1.18
2024-01-10T19:21:33.547Z,-1.24
2024-01-10T19:24:31.256Z,-1.43
2024-01-10T19:27:29.279Z,-1.59
2024-01-10T19:30:26.959Z,-1.76
2024-01-10T19:33:25.789Z,-1.93
2024-01-10T19:36:27.004Z,-2.08
2024-01-10T19:39:26.341Z,-2.21
2024-01-10T19:42:24.006Z,-2.33
2024-01-10T19:45:23.349Z,-2.42
2024-01-10T19:48:21.957Z,-2.39
2024-01-10T19:51:20.182Z,-2.39
2024-01-10T19:54:18.274Z,-2.45
2024-01-10T19:57:15.931Z,-2.49
2024-01-10T20:00:13.945Z,-2.50
2024-01-10T20:03:12.248Z,-2.53
2024-01-10T20:06:10.599Z,-2.53
2024-01-10T20:09:09.420Z,-2.53
2024-01-10T20:12:07.342Z,-2.55
2024-01-10T20:15:05.342Z,-2.56
2024-01-10T20:18:03.262Z,-2.40
2024-01-10T20:21:01.353Z,-2.29
2024-01-10T20:23:59.049Z,-2.40
2024-01-10T20:26:56.748Z,-2.25
2024-01-10T20:29:54.804Z,-2.30
2024-01-10T20:32:52.718Z,-2.44
2024-01-10T20:35:51.518Z,-2.55
2024-01-10T20:38:49.213Z,-2.64
2024-01-10T20:41:47.928Z,-2.69
2024-01-10T20:44:48.361Z,-2.70
2024-01-10T20:47:46.580Z,-2.72
2024-01-10T20:50:44.423Z,-2.72
2024-01-10T20:53:42.614Z,-2.73
2024-01-10T20:56:40.398Z,-2.78
2024-01-10T20:59:38.597Z,-2.83
2024-01-10T21:02:36.390Z,-2.90
2024-01-10T21:05:34.653Z,-2.94
2024-01-10T21:08:32.600Z,-2.94
2024-01-10T21:11:30.821Z,-2.93
2024-01-10T21:14:28.596Z,-2.91
2024-01-10T21:17:27.586Z,-2.91
2024-01-10T21:20:25.377Z,-2.92
2024-01-10T21:23:23.513Z,-2.91
2024-01-10T21:26:21.238Z,-2.91
2024-01-10T21:29:19.346Z,-2.93
2024-01-10T21:32:19.508Z,-2.94
2024-01-10T21:35:17.672Z,-2.96
2024-01-10T21:38:15.425Z,-2.98
2024-01-10T21:41:14.181Z,-3.01
2024-01-10T21:44:11.973Z,-3.03
2024-01-10T21:47:10.629Z,-3.04
2024-01-10T21:50:10.556Z,-3.05
2024-01-10T21:53:09.244Z,-3.08
2024-01-10T21:56:10.279Z,-3.10
2024-01-10T21:59:08.404Z,-3.11
2024-01-10T22:02:06.697Z,-3.13
2024-01-10T22:05:05.749Z,-3.16
2024-01-10T22:08:05.824Z,-3.21
2024-01-10T22:11:05.030Z,-3.28
2024-01-10T22:14:03.260Z,-3.31
2024-01-10T22:17:01.228Z,-3.34
2024-01-10T22:19:59.329Z,-3.37
2024-01-10T22:22:57.024Z,-3.41
2024-01-10T22:25:56.385Z,-3.44
2024-01-10T22:28:54.240Z,-3.47
2024-01-10T22:31:52.411Z,-3.49
2024-01-10T22:34:50.463Z,-3.52
2024-01-10T22:37:49.090Z,-3.58
2024-01-10T22:40:46.765Z,-3.62
2024-01-10T22:43:44.729Z,-3.65
2024-01-10T22:46:42.749Z,-3.68
2024-01-10T22:49:40.386Z,-3.75
2024-01-10T22:52:39.640Z,-3.78
2024-01-10T22:55:37.744Z,-3.80
2024-01-10T22:58:35.711Z,-3.82
2024-01-10T23:01:33.430Z,-3.92
2024-01-10T23:04:31.540Z,-4.02
2024-01-10T23:07:29.296Z,-4.09
2024-01-10T23:10:27.417Z,-4.12
2024-01-10T23:13:25.386Z,-4.15
2024-01-10T23:16:23.958Z,-4.17
2024-01-10T23:19:22.071Z,-4.18
2024-01-10T23:22:20.320Z,-4.17
2024-01-10T23:25:18.808Z,-4.19
2024-01-10T23:28:16.528Z,-4.21
2024-01-10T23:31:14.530Z,-4.22
2024-01-10T23:34:14.388Z,-4.23
2024-01-10T23:37:12.733Z,-4.25
2024-01-10T23:40:11.009Z,-4.25
2024-01-10T23:43:15.712Z,-4.25
2024-01-10T23:46:21.985Z,-4.27
2024-01-10T23:49:19.744Z,-4.34
2024-01-10T23:52:17.731Z,-4.40
2024-01-10T23:55:15.386Z,-4.43
2024-01-10T23:58:13.257Z,-4.47
